Hovedside
METAR-TAF:

METAR-TAF

Lufthavner :

Ondangwa, Namibia

breddegrad: 17-52-42S, lengdegrad: 015-57-09E, høyde over havet: 1096 m

Gjeldene værobservasjon

Denne rapporten ble laget for 29 minutter siden, klokken 19:00 UTC
Vind 4 kt fra Sør
Temperatur 29°C
Luftfuktighet 18%
Trykk 1013 hPa

METAR: FYOA 211900Z AUTO 17004KT //// // ////// 29/02 Q1013

Tid: 21:29 (19:29 UTC)

Varsel

Denne rapporten ble laget for 2 timer og 29 minutter siden, klokken 17:00 UTC
Varsel gyldig fra 21. klokken 18 UTC til 22. klokken 03 UTC
Vind 3 kt fra Sør-sørvest
Sikt 10 km eller mer
ingen skyer under 1500 m og ingen bygeskyer

TAF: FYOA 211700Z 2118/2203 20003KT CAVOK

Værobservasjoner og værvarsel for over 4000 flyplasser (METAR- og TAF-rapporter).

Tilgjengelige stasjoner er representert av de røde og gule prikkene på kartet.

Hold musepekeren over prikken for å se navnet på stasjonen.

Klikk så for å se værobservasjoner og -varsler.

For å forandre kartet kan du klikke på den grønne knappen med svart kryss for å zoome inn, på den grønne knappen med strek for å zoome ut, eller på de grønne pilene for å se tilstøtende kart.


METAR-TAF: